Maersk Columbus — WMCU — position and weather

sailwx.info

Track history (hours):
 
Tides and Currents Weather Stations Pressure Air Temp Water Temp Dewpoint Dewpoint Depression Visibility Wind Speed Wind Dir Waves Ship Positions

Maersk Columbus

Owner: MAERSK LINE, LIMITED, NORFOLK, VA. More information available from US FCC via Universal Licensing System and Coast Guard Vessel Documentation Center.

Last reported at 2018-Apr-25 06:00 UTC. Time now 2018-Apr-25 06:55 UTC.
Position N 39°36' W 052°18'.

Length 299 m; draft 11.9 m.

Type: Ship (hazmat cat A). MMSI: 338525000.

Wind from 040 at 18 knots

Barometer 1030.1 mb
Air temperature 14.0 ° C
Visibility: greater than 10.8 NM
Dewpoint 7.9 ° C
Water temperature 17.6 ° C

Date/timePositionNaut miles runAvg speedWind from/ knotsBaromVisibWave heightAir tempDewpointWater temp
2018-Apr-25 06:00N 39°36' W 052°18'10217.0 040 / 181030.110.8 14.0 7.917.6
2018-Apr-25 00:00N 39°36' W 054°30'38816.2 050 / 131031.210.8 11.5-1.119.0
2018-Apr-24 00:00N 39°54' W 062°54'10818.1 360 / 111031.510.8 11.0-11.914.0
2018-Apr-23 18:00N 39°06' W 065°00'9519.1 330 / 101031.510.8 13.0 9.713.0
2018-Apr-23 13:00N 40°00' W 066°42'33714.5 320 / 81031.610.8 11.0 9.013.0
2018-Apr-22 13:50N 40°32' W 074°01'513.8
2018-Apr-22 13:30N 40°36' W 074°03'4 7.1
2018-Apr-22 13:00N 40°39' W 074°06'2 3.7
2018-Apr-22 12:29N 40°40' W 074°09'0 0.4
2018-Apr-22 11:58N 40°40' W 074°09'0 0.0
2018-Apr-22 11:28N 40°40' W 074°09'0 0.0
2018-Apr-22 10:58N 40°40' W 074°09'0 0.0
2018-Apr-22 10:25N 40°40' W 074°09'0 0.0
2018-Apr-22 09:58N 40°40' W 074°09'0 0.0
2018-Apr-22 09:28N 40°40' W 074°09'0 0.0
2018-Apr-22 08:58N 40°40' W 074°09'0 0.0
2018-Apr-22 08:28N 40°40' W 074°09'0 0.0
2018-Apr-22 07:58N 40°40' W 074°09'0 0.0
2018-Apr-22 07:28N 40°40' W 074°09'0 0.0
2018-Apr-22 06:58N 40°40' W 074°09'0 0.0
2018-Apr-22 06:28N 40°40' W 074°09'0 0.0
2018-Apr-22 05:58N 40°40' W 074°09'0 0.0
2018-Apr-22 05:28N 40°40' W 074°09'0 0.0
2018-Apr-22 04:58N 40°40' W 074°09'0 0.0
2018-Apr-22 04:28N 40°40' W 074°09'0 0.0
2018-Apr-22 03:58N 40°40' W 074°09'0 0.0
2018-Apr-22 03:28N 40°40' W 074°09'0 0.0
2018-Apr-22 02:58N 40°40' W 074°09'0 0.0
2018-Apr-22 02:28N 40°40' W 074°09'0 0.0
2018-Apr-22 01:58N 40°40' W 074°09'0 0.0
2018-Apr-22 01:28N 40°40' W 074°09'0 0.0
2018-Apr-22 00:58N 40°40' W 074°09'0 0.0
2018-Apr-22 00:28N 40°40' W 074°09'0 0.0
2018-Apr-21 23:58N 40°40' W 074°09'0 0.0
2018-Apr-21 23:28N 40°40' W 074°09'0 0.0
2018-Apr-21 22:58N 40°40' W 074°09'0 0.0
2018-Apr-21 22:28N 40°40' W 074°09'0 0.0
2018-Apr-21 21:58N 40°40' W 074°09'0 0.5
2018-Apr-21 21:30N 40°40' W 074°09'2 3.4
2018-Apr-21 21:00N 40°39' W 074°07'3 6.0
2018-Apr-21 20:30N 40°38' W 074°03'612.1
2018-Apr-21 20:01N 40°32' W 074°01'611.5
2018-Apr-21 19:30N 40°29' W 073°54'5 9.3
2018-Apr-21 19:00N 40°27' W 073°49'4 7.5
2018-Apr-21 18:27N 40°23' W 073°47'4 7.9
2018-Apr-21 18:00N 40°19' W 073°46'3913.5
2018-Apr-21 15:05N 39°40' W 073°44'918.0
2018-Apr-21 14:35N 39°32' W 073°47'18814.8
2018-Apr-21 01:54N 36°51' W 075°51'4 9.6
2018-Apr-21 01:30N 36°54' W 075°55'5 9.2
2018-Apr-21 01:00N 36°57' W 075°60'612.9
2018-Apr-21 00:30N 36°59' W 076°07'816.1
2018-Apr-20 23:59N 36°60' W 076°17'5 9.7
2018-Apr-20 23:30N 36°56' W 076°20'0 0.0
2018-Apr-20 14:38N 36°56' W 076°20'0 0.0
2018-Apr-20 14:17N 36°56' W 076°20'0 0.0
2018-Apr-20 11:08N 36°56' W 076°20'0 0.0
2018-Apr-20 10:56N 36°56' W 076°20'0 0.8
2018-Apr-20 10:30N 36°56' W 076°20'18 8.9
2018-Apr-20 08:30N 36°56' W 075°58'4 7.8
2018-Apr-20 08:00N 36°54' W 075°54'4 8.3
2018-Apr-20 07:30N 36°52' W 075°50'65617.7
2018-Apr-18 18:29N 26°27' W 079°47'1123.0
2018-Apr-18 18:00N 26°16' W 079°48'1123.0
2018-Apr-18 17:30N 26°05' W 079°49'1123.0
2018-Apr-18 17:00N 25°53' W 079°50'1122.9
2018-Apr-18 16:30N 25°42' W 079°51'1223.0
2018-Apr-18 16:00N 25°31' W 079°55'74919.3
2018-Apr-17 01:08N 28°36' W 093°31'8217.9
2018-Apr-16 20:34N 29°22' W 094°48'311.4
2018-Apr-16 20:15N 29°25' W 094°50'310.7
2018-Apr-16 20:00N 29°28' W 094°51'510.8
2018-Apr-16 19:30N 29°32' W 094°54'510.2
2018-Apr-16 19:00N 29°37' W 094°57'2 5.0
2018-Apr-16 18:30N 29°37' W 095°00'0 0.0
2018-Apr-16 17:59N 29°37' W 095°00'0 0.0
2018-Apr-16 17:29N 29°37' W 095°00'0 0.0
2018-Apr-16 16:59N 29°37' W 095°00'0 0.0
2018-Apr-16 16:29N 29°37' W 095°00'0 0.0
2018-Apr-16 15:59N 29°37' W 095°00'0 0.0
2018-Apr-16 15:29N 29°37' W 095°00'0 0.0
2018-Apr-16 14:59N 29°37' W 095°00'0 0.0
2018-Apr-16 14:26N 29°37' W 095°00'0 0.0
2018-Apr-16 13:59N 29°37' W 095°00'0 0.0
2018-Apr-16 13:29N 29°37' W 095°00'0 0.0
2018-Apr-16 12:59N 29°37' W 095°00'0 0.0
2018-Apr-16 12:29N 29°37' W 095°00'0 0.0
2018-Apr-16 11:59N 29°37' W 095°00'0 0.0
2018-Apr-16 11:29N 29°37' W 095°00'0 0.0
2018-Apr-16 10:59N 29°37' W 095°00'0 0.0
2018-Apr-16 10:29N 29°37' W 095°00'0 0.0
2018-Apr-16 09:59N 29°37' W 095°00'0 0.0
2018-Apr-16 09:29N 29°37' W 095°00'0 0.0
2018-Apr-16 08:59N 29°37' W 095°00'0 0.0
2018-Apr-16 08:29N 29°37' W 095°00'0 0.0
2018-Apr-16 07:59N 29°37' W 095°00'0 0.0
2018-Apr-16 07:29N 29°37' W 095°00'0 0.0
2018-Apr-16 06:59N 29°37' W 095°00'0 0.0
2018-Apr-16 06:29N 29°37' W 095°00'0 0.0
2018-Apr-16 05:59N 29°37' W 095°00'0 0.0
2018-Apr-16 05:29N 29°37' W 095°00'0 0.0
2018-Apr-16 04:59N 29°37' W 095°00'0 0.0
2018-Apr-16 04:29N 29°37' W 095°00'0 0.0
2018-Apr-16 03:59N 29°37' W 095°00'0 0.0
2018-Apr-16 03:29N 29°37' W 095°00'0 0.0
2018-Apr-16 02:59N 29°37' W 095°00'0 0.0
2018-Apr-16 02:29N 29°37' W 095°00'0 0.0
2018-Apr-16 01:59N 29°37' W 095°00'0 0.0
2018-Apr-16 01:29N 29°37' W 095°00'0 0.0
2018-Apr-16 00:59N 29°37' W 095°00'0 0.0
2018-Apr-16 00:29N 29°37' W 095°00'0 0.0
2018-Apr-15 23:59N 29°37' W 095°00'0 0.0
2018-Apr-15 23:29N 29°37' W 095°00'0 0.0
2018-Apr-15 22:59N 29°37' W 095°00'0 0.0
2018-Apr-15 22:29N 29°37' W 095°00'0 0.0
2018-Apr-15 21:59N 29°37' W 095°00'0 0.0
2018-Apr-15 21:29N 29°37' W 095°00'0 0.0
2018-Apr-15 20:59N 29°37' W 095°00'0 0.0
2018-Apr-15 20:29N 29°37' W 095°00'0 0.0
2018-Apr-15 19:59N 29°37' W 095°00'0 0.0
2018-Apr-15 19:29N 29°37' W 095°00'0 0.0
2018-Apr-15 18:59N 29°37' W 095°00'0 0.0
2018-Apr-15 18:29N 29°37' W 095°00'0 0.0
2018-Apr-15 17:59N 29°37' W 095°00'0 0.0
2018-Apr-15 17:29N 29°37' W 095°00'0 0.0
2018-Apr-15 16:59N 29°37' W 095°00'0 0.0
2018-Apr-15 16:29N 29°37' W 095°00'0 0.0
2018-Apr-15 15:59N 29°37' W 095°00'0 0.0
2018-Apr-15 15:29N 29°37' W 095°00'0 0.0
2018-Apr-15 14:59N 29°37' W 095°00'0 0.0
2018-Apr-15 14:29N 29°37' W 095°00'0 0.0
2018-Apr-15 13:59N 29°37' W 095°00'0 0.0
2018-Apr-15 13:29N 29°37' W 095°00'0 0.0
2018-Apr-15 12:59N 29°37' W 095°00'0 0.0
2018-Apr-15 12:29N 29°37' W 095°00'0 0.0
2018-Apr-15 11:59N 29°37' W 095°00'0 0.0
2018-Apr-15 11:29N 29°37' W 095°00'0 0.0
2018-Apr-15 10:59N 29°37' W 095°00'0 0.0
2018-Apr-15 10:29N 29°37' W 095°00'0 0.0
2018-Apr-15 09:59N 29°37' W 095°00'0 0.0
2018-Apr-15 09:26N 29°37' W 095°00'0 0.0
2018-Apr-15 08:59N 29°37' W 095°00'0 0.0
2018-Apr-15 08:29N 29°37' W 095°00'0 0.0
2018-Apr-15 07:59N 29°37' W 095°00'0 0.0
2018-Apr-15 07:29N 29°37' W 095°00'0 0.0
2018-Apr-15 06:59N 29°37' W 095°00'0 0.0
2018-Apr-15 06:29N 29°37' W 095°00'  
Track history (hours):
 
Tides and Currents Weather Stations Pressure Air Temp Water Temp Dewpoint Dewpoint Depression Visibility Wind Speed Wind Dir Waves Ship Positions

Maersk Columbus

Owner: MAERSK LINE, LIMITED, NORFOLK, VA. More information available from US FCC via Universal Licensing System and Coast Guard Vessel Documentation Center.

Last reported at 2018-Apr-25 06:00 UTC. Time now 2018-Apr-25 06:55 UTC.
Position N 39°36' W 052°18'.

Length 299 m; draft 11.9 m.

Type: Ship (hazmat cat A). MMSI: 338525000.

Wind from 040 at 18 knots

Barometer 1030.1 mb
Air temperature 14.0 ° C
Visibility: greater than 10.8 NM
Dewpoint 7.9 ° C
Water temperature 17.6 ° C

Date/timePositionNaut miles runAvg speedWind from/ knotsBaromVisibWave heightAir tempDewpointWater temp
2018-Apr-25 06:00N 39°36' W 052°18'10217.0 040 / 181030.110.8 14.0 7.917.6
2018-Apr-25 00:00N 39°36' W 054°30'38816.2 050 / 131031.210.8 11.5-1.119.0
2018-Apr-24 00:00N 39°54' W 062°54'10818.1 360 / 111031.510.8 11.0-11.914.0
2018-Apr-23 18:00N 39°06' W 065°00'9519.1 330 / 101031.510.8 13.0 9.713.0
2018-Apr-23 13:00N 40°00' W 066°42'33714.5 320 / 81031.610.8 11.0 9.013.0
2018-Apr-22 13:50N 40°32' W 074°01'513.8
2018-Apr-22 13:30N 40°36' W 074°03'4 7.1
2018-Apr-22 13:00N 40°39' W 074°06'2 3.7
2018-Apr-22 12:29N 40°40' W 074°09'0 0.4
2018-Apr-22 11:58N 40°40' W 074°09'0 0.0
2018-Apr-22 11:28N 40°40' W 074°09'0 0.0
2018-Apr-22 10:58N 40°40' W 074°09'0 0.0
2018-Apr-22 10:25N 40°40' W 074°09'0 0.0
2018-Apr-22 09:58N 40°40' W 074°09'0 0.0
2018-Apr-22 09:28N 40°40' W 074°09'0 0.0
2018-Apr-22 08:58N 40°40' W 074°09'0 0.0
2018-Apr-22 08:28N 40°40' W 074°09'0 0.0
2018-Apr-22 07:58N 40°40' W 074°09'0 0.0
2018-Apr-22 07:28N 40°40' W 074°09'0 0.0
2018-Apr-22 06:58N 40°40' W 074°09'0 0.0
2018-Apr-22 06:28N 40°40' W 074°09'0 0.0
2018-Apr-22 05:58N 40°40' W 074°09'0 0.0
2018-Apr-22 05:28N 40°40' W 074°09'0 0.0
2018-Apr-22 04:58N 40°40' W 074°09'0 0.0
2018-Apr-22 04:28N 40°40' W 074°09'0 0.0
2018-Apr-22 03:58N 40°40' W 074°09'0 0.0
2018-Apr-22 03:28N 40°40' W 074°09'0 0.0
2018-Apr-22 02:58N 40°40' W 074°09'0 0.0
2018-Apr-22 02:28N 40°40' W 074°09'0 0.0
2018-Apr-22 01:58N 40°40' W 074°09'0 0.0
2018-Apr-22 01:28N 40°40' W 074°09'0 0.0
2018-Apr-22 00:58N 40°40' W 074°09'0 0.0
2018-Apr-22 00:28N 40°40' W 074°09'0 0.0
2018-Apr-21 23:58N 40°40' W 074°09'0 0.0
2018-Apr-21 23:28N 40°40' W 074°09'0 0.0
2018-Apr-21 22:58N 40°40' W 074°09'0 0.0
2018-Apr-21 22:28N 40°40' W 074°09'0 0.0
2018-Apr-21 21:58N 40°40' W 074°09'0 0.5
2018-Apr-21 21:30N 40°40' W 074°09'2 3.4
2018-Apr-21 21:00N 40°39' W 074°07'3 6.0
2018-Apr-21 20:30N 40°38' W 074°03'612.1
2018-Apr-21 20:01N 40°32' W 074°01'611.5
2018-Apr-21 19:30N 40°29' W 073°54'5 9.3
2018-Apr-21 19:00N 40°27' W 073°49'4 7.5
2018-Apr-21 18:27N 40°23' W 073°47'4 7.9
2018-Apr-21 18:00N 40°19' W 073°46'3913.5
2018-Apr-21 15:05N 39°40' W 073°44'918.0
2018-Apr-21 14:35N 39°32' W 073°47'18814.8
2018-Apr-21 01:54N 36°51' W 075°51'4 9.6
2018-Apr-21 01:30N 36°54' W 075°55'5 9.2
2018-Apr-21 01:00N 36°57' W 075°60'612.9
2018-Apr-21 00:30N 36°59' W 076°07'816.1
2018-Apr-20 23:59N 36°60' W 076°17'5 9.7
2018-Apr-20 23:30N 36°56' W 076°20'0 0.0
2018-Apr-20 14:38N 36°56' W 076°20'0 0.0
2018-Apr-20 14:17N 36°56' W 076°20'0 0.0
2018-Apr-20 11:08N 36°56' W 076°20'0 0.0
2018-Apr-20 10:56N 36°56' W 076°20'0 0.8
2018-Apr-20 10:30N 36°56' W 076°20'18 8.9
2018-Apr-20 08:30N 36°56' W 075°58'4 7.8
2018-Apr-20 08:00N 36°54' W 075°54'4 8.3
2018-Apr-20 07:30N 36°52' W 075°50'65617.7
2018-Apr-18 18:29N 26°27' W 079°47'1123.0
2018-Apr-18 18:00N 26°16' W 079°48'1123.0
2018-Apr-18 17:30N 26°05' W 079°49'1123.0
2018-Apr-18 17:00N 25°53' W 079°50'1122.9
2018-Apr-18 16:30N 25°42' W 079°51'1223.0
2018-Apr-18 16:00N 25°31' W 079°55'74919.3
2018-Apr-17 01:08N 28°36' W 093°31'8217.9
2018-Apr-16 20:34N 29°22' W 094°48'311.4
2018-Apr-16 20:15N 29°25' W 094°50'310.7
2018-Apr-16 20:00N 29°28' W 094°51'510.8
2018-Apr-16 19:30N 29°32' W 094°54'510.2
2018-Apr-16 19:00N 29°37' W 094°57'2 5.0
2018-Apr-16 18:30N 29°37' W 095°00'0 0.0
2018-Apr-16 17:59N 29°37' W 095°00'0 0.0
2018-Apr-16 17:29N 29°37' W 095°00'0 0.0
2018-Apr-16 16:59N 29°37' W 095°00'0 0.0
2018-Apr-16 16:29N 29°37' W 095°00'0 0.0
2018-Apr-16 15:59N 29°37' W 095°00'0 0.0
2018-Apr-16 15:29N 29°37' W 095°00'0 0.0
2018-Apr-16 14:59N 29°37' W 095°00'0 0.0
2018-Apr-16 14:26N 29°37' W 095°00'0 0.0
2018-Apr-16 13:59N 29°37' W 095°00'0 0.0
2018-Apr-16 13:29N 29°37' W 095°00'0 0.0
2018-Apr-16 12:59N 29°37' W 095°00'0 0.0
2018-Apr-16 12:29N 29°37' W 095°00'0 0.0
2018-Apr-16 11:59N 29°37' W 095°00'0 0.0
2018-Apr-16 11:29N 29°37' W 095°00'0 0.0
2018-Apr-16 10:59N 29°37' W 095°00'0 0.0
2018-Apr-16 10:29N 29°37' W 095°00'0 0.0
2018-Apr-16 09:59N 29°37' W 095°00'0 0.0
2018-Apr-16 09:29N 29°37' W 095°00'0 0.0
2018-Apr-16 08:59N 29°37' W 095°00'0 0.0
2018-Apr-16 08:29N 29°37' W 095°00'0 0.0
2018-Apr-16 07:59N 29°37' W 095°00'0 0.0
2018-Apr-16 07:29N 29°37' W 095°00'0 0.0
2018-Apr-16 06:59N 29°37' W 095°00'0 0.0
2018-Apr-16 06:29N 29°37' W 095°00'0 0.0
2018-Apr-16 05:59N 29°37' W 095°00'0 0.0
2018-Apr-16 05:29N 29°37' W 095°00'0 0.0
2018-Apr-16 04:59N 29°37' W 095°00'0 0.0
2018-Apr-16 04:29N 29°37' W 095°00'0 0.0
2018-Apr-16 03:59N 29°37' W 095°00'0 0.0
2018-Apr-16 03:29N 29°37' W 095°00'0 0.0
2018-Apr-16 02:59N 29°37' W 095°00'0 0.0
2018-Apr-16 02:29N 29°37' W 095°00'0 0.0
2018-Apr-16 01:59N 29°37' W 095°00'0 0.0
2018-Apr-16 01:29N 29°37' W 095°00'0 0.0
2018-Apr-16 00:59N 29°37' W 095°00'0 0.0
2018-Apr-16 00:29N 29°37' W 095°00'0 0.0
2018-Apr-15 23:59N 29°37' W 095°00'0 0.0
2018-Apr-15 23:29N 29°37' W 095°00'0 0.0
2018-Apr-15 22:59N 29°37' W 095°00'0 0.0
2018-Apr-15 22:29N 29°37' W 095°00'0 0.0
2018-Apr-15 21:59N 29°37' W 095°00'0 0.0
2018-Apr-15 21:29N 29°37' W 095°00'0 0.0
2018-Apr-15 20:59N 29°37' W 095°00'0 0.0
2018-Apr-15 20:29N 29°37' W 095°00'0 0.0
2018-Apr-15 19:59N 29°37' W 095°00'0 0.0
2018-Apr-15 19:29N 29°37' W 095°00'0 0.0
2018-Apr-15 18:59N 29°37' W 095°00'0 0.0
2018-Apr-15 18:29N 29°37' W 095°00'0 0.0
2018-Apr-15 17:59N 29°37' W 095°00'0 0.0
2018-Apr-15 17:29N 29°37' W 095°00'0 0.0
2018-Apr-15 16:59N 29°37' W 095°00'0 0.0
2018-Apr-15 16:29N 29°37' W 095°00'0 0.0
2018-Apr-15 15:59N 29°37' W 095°00'0 0.0
2018-Apr-15 15:29N 29°37' W 095°00'0 0.0
2018-Apr-15 14:59N 29°37' W 095°00'0 0.0
2018-Apr-15 14:29N 29°37' W 095°00'0 0.0
2018-Apr-15 13:59N 29°37' W 095°00'0 0.0
2018-Apr-15 13:29N 29°37' W 095°00'0 0.0
2018-Apr-15 12:59N 29°37' W 095°00'0 0.0
2018-Apr-15 12:29N 29°37' W 095°00'0 0.0
2018-Apr-15 11:59N 29°37' W 095°00'0 0.0
2018-Apr-15 11:29N 29°37' W 095°00'0 0.0
2018-Apr-15 10:59N 29°37' W 095°00'0 0.0
2018-Apr-15 10:29N 29°37' W 095°00'0 0.0
2018-Apr-15 09:59N 29°37' W 095°00'0 0.0
2018-Apr-15 09:26N 29°37' W 095°00'0 0.0
2018-Apr-15 08:59N 29°37' W 095°00'0 0.0
2018-Apr-15 08:29N 29°37' W 095°00'0 0.0
2018-Apr-15 07:59N 29°37' W 095°00'0 0.0
2018-Apr-15 07:29N 29°37' W 095°00'0 0.0
2018-Apr-15 06:59N 29°37' W 095°00'0 0.0
2018-Apr-15 06:29N 29°37' W 095°00'  

Dump ship's entire track history